West Payne, Texas
Current Conditions -  °F | °C
As of 5:35 PM on Wednesday 22 Oct 2014 (Local Time) from KARM Reporting Station
Clear Clear  
Wind Chill: 81°   Ceiling: Unl
Heat Index: 81°   Visibility: 10mi
Dew Point: 56°   Wind: 7mph
Humidity: 43%   Direction: 90°E
Pressure: 30.03"   Gusts: NA
Location:  29.1916°N, 96.2212°W
Report Text: KARM 222235Z AUTO 09006KT 10SM CLR 27/14 A3003 RMK AO2 T02710135
Loading
Personal Weather Stations






























Interactive Weather Map
Tropical Storm Tracking
New forecast layout! Learn more

10-Day Weather Forecast

Advertisements
Track Severe Weather on mobile